createdAt,value
2018-10-09T00:00:21.980Z,12.73
2018-10-09T00:00:54.273Z,12.75
2018-10-09T00:01:25.983Z,12.75
2018-10-09T00:02:42.894Z,12.74
2018-10-09T00:03:14.091Z,12.73
2018-10-09T00:03:45.279Z,12.73
2018-10-09T00:04:16.438Z,12.72
2018-10-09T00:04:47.591Z,12.72
2018-10-09T00:10:06.607Z,12.29
2018-10-09T00:10:37.723Z,12.25
2018-10-09T00:11:09.047Z,12.21
2018-10-09T00:11:41.817Z,12.19
2018-10-09T00:12:14.712Z,12.19
2018-10-09T00:12:45.840Z,12.19
2018-10-09T00:13:16.969Z,12.19
2018-10-09T00:13:49.633Z,12.22
2018-10-09T00:14:20.778Z,12.27
2018-10-09T00:14:51.957Z,12.30
2018-10-09T00:15:23.100Z,12.33
2018-10-09T00:15:55.248Z,12.34
2018-10-09T00:16:27.834Z,12.35
2018-10-09T00:16:58.974Z,12.36
2018-10-09T00:17:30.140Z,12.35
2018-10-09T00:18:01.251Z,12.38
2018-10-09T00:18:32.451Z,12.39
2018-10-09T00:19:03.588Z,12.38
2018-10-09T00:19:34.709Z,12.33
2018-10-09T00:20:06.247Z,12.32
2018-10-09T00:20:37.410Z,12.33
2018-10-09T00:21:08.577Z,12.35
2018-10-09T00:21:39.686Z,12.35
2018-10-09T00:22:10.820Z,12.35
2018-10-09T00:22:41.994Z,12.34
2018-10-09T00:23:13.113Z,12.34
2018-10-09T00:23:44.238Z,12.33
2018-10-09T00:24:16.196Z,12.33
2018-10-09T00:24:48.092Z,12.32
2018-10-09T00:25:19.243Z,12.31
2018-10-09T00:25:50.468Z,12.30
2018-10-09T00:26:21.577Z,12.28
2018-10-09T00:26:52.724Z,12.27
2018-10-09T00:27:23.890Z,12.29
2018-10-09T00:27:55.034Z,12.28
2018-10-09T00:28:26.183Z,12.22
2018-10-09T00:28:57.315Z,12.19
2018-10-09T00:29:28.490Z,12.17
2018-10-09T00:29:59.658Z,12.16
2018-10-09T00:30:30.807Z,12.16
2018-10-09T00:31:01.960Z,12.16
2018-10-09T00:31:33.114Z,12.19
2018-10-09T00:32:04.253Z,12.20
2018-10-09T00:32:35.390Z,12.19
2018-10-09T00:33:06.520Z,12.20
2018-10-09T00:33:37.721Z,12.19
2018-10-09T00:34:09.595Z,12.17
2018-10-09T00:34:40.761Z,12.12
2018-10-09T00:35:11.903Z,12.08
2018-10-09T00:35:43.026Z,12.05
2018-10-09T00:36:14.145Z,12.06
2018-10-09T00:36:45.258Z,12.06
2018-10-09T00:37:16.373Z,12.06
2018-10-09T00:37:47.529Z,12.07
2018-10-09T00:38:18.694Z,12.04
2018-10-09T00:38:49.861Z,12.04
2018-10-09T00:39:21.012Z,12.00
2018-10-09T00:39:52.154Z,11.98
2018-10-09T00:40:23.299Z,11.97
2018-10-09T00:40:54.500Z,11.95
2018-10-09T00:41:25.662Z,11.90
2018-10-09T00:41:56.791Z,11.86
2018-10-09T00:42:27.939Z,11.83
2018-10-09T00:42:59.062Z,11.78
2018-10-09T00:43:30.226Z,11.76
2018-10-09T00:44:01.383Z,11.75
2018-10-09T00:44:32.524Z,11.73
2018-10-09T00:45:03.666Z,11.73
2018-10-09T00:45:34.817Z,11.71
2018-10-09T00:46:05.991Z,11.69
2018-10-09T00:46:37.114Z,11.69
2018-10-09T00:47:08.294Z,11.66
2018-10-09T00:47:39.435Z,11.65
2018-10-09T00:48:10.631Z,11.64
2018-10-09T00:48:41.746Z,11.62
2018-10-09T00:49:12.896Z,11.60
2018-10-09T00:49:44.053Z,11.60
2018-10-09T00:50:15.172Z,11.59
2018-10-09T00:50:47.115Z,11.57
2018-10-09T00:51:19.350Z,11.54
2018-10-09T00:51:50.473Z,11.52
2018-10-09T00:52:21.630Z,11.49
2018-10-09T00:52:52.766Z,11.48
2018-10-09T00:53:24.171Z,11.51
2018-10-09T00:53:55.285Z,11.51
2018-10-09T00:54:26.415Z,11.52
2018-10-09T00:54:57.522Z,11.50
2018-10-09T00:55:28.660Z,11.47
2018-10-09T00:55:59.820Z,11.45
2018-10-09T00:56:30.959Z,11.43
2018-10-09T00:57:02.074Z,11.42
2018-10-09T00:57:33.265Z,11.43
2018-10-09T00:58:04.421Z,11.42
2018-10-09T00:58:35.547Z,11.43
2018-10-09T00:59:06.682Z,11.42
2018-10-09T00:59:37.844Z,11.42
2018-10-09T01:00:08.963Z,11.41
2018-10-09T01:00:40.097Z,11.42
2018-10-09T01:01:11.208Z,11.41
2018-10-09T01:01:42.350Z,11.42
2018-10-09T01:02:13.470Z,11.43
2018-10-09T01:02:44.593Z,11.43
2018-10-09T01:03:15.745Z,11.42
2018-10-09T01:03:46.905Z,11.41
2018-10-09T01:04:18.019Z,11.42
2018-10-09T01:04:49.149Z,11.40
2018-10-09T01:05:20.296Z,11.37
2018-10-09T01:05:51.481Z,11.35
2018-10-09T01:06:22.615Z,11.35
2018-10-09T01:06:53.785Z,11.35
2018-10-09T01:07:24.959Z,11.33
2018-10-09T01:07:56.090Z,11.28
2018-10-09T01:08:27.286Z,11.28
2018-10-09T01:08:58.437Z,11.26
2018-10-09T01:09:29.543Z,11.23
2018-10-09T01:10:00.676Z,11.21
2018-10-09T01:10:31.857Z,11.20
2018-10-09T01:11:03.052Z,11.19
2018-10-09T01:11:34.209Z,11.18
2018-10-09T01:12:05.979Z,11.17
2018-10-09T01:12:37.101Z,11.17
2018-10-09T01:13:08.228Z,11.15
2018-10-09T01:13:39.426Z,11.16
2018-10-09T01:14:10.572Z,11.16
2018-10-09T01:14:41.712Z,11.13
2018-10-09T01:15:12.867Z,11.12
2018-10-09T01:15:43.980Z,11.11
2018-10-09T01:16:15.125Z,11.10
2018-10-09T01:16:46.281Z,11.09
2018-10-09T01:17:17.410Z,11.07
2018-10-09T01:17:48.525Z,11.08
2018-10-09T01:18:19.666Z,11.08
2018-10-09T01:18:50.804Z,11.08
2018-10-09T01:19:21.937Z,11.07
2018-10-09T01:19:53.121Z,11.06
2018-10-09T01:20:25.051Z,11.06
2018-10-09T01:20:56.231Z,11.04
2018-10-09T01:21:27.359Z,11.04
2018-10-09T01:21:58.533Z,11.03
2018-10-09T01:22:29.635Z,11.00
2018-10-09T01:23:00.757Z,10.99
2018-10-09T01:23:31.914Z,10.97
2018-10-09T01:24:03.044Z,10.96
2018-10-09T01:24:34.257Z,10.95
2018-10-09T01:25:05.386Z,10.92
2018-10-09T01:25:36.510Z,10.91
2018-10-09T01:26:07.650Z,10.94
2018-10-09T01:26:38.791Z,10.94
2018-10-09T01:27:11.559Z,10.94
2018-10-09T01:27:42.681Z,10.94
2018-10-09T01:28:14.425Z,10.93
2018-10-09T01:28:45.544Z,10.92
2018-10-09T01:29:16.688Z,10.90
2018-10-09T01:29:47.874Z,10.89
2018-10-09T01:30:19.000Z,10.88
2018-10-09T01:30:50.179Z,10.87
2018-10-09T01:31:21.291Z,10.87
2018-10-09T01:31:52.424Z,10.85
2018-10-09T01:32:23.540Z,10.85
2018-10-09T01:32:54.695Z,10.87
2018-10-09T01:33:25.822Z,10.87
2018-10-09T01:33:56.962Z,10.87
2018-10-09T01:34:28.101Z,10.85
2018-10-09T01:34:59.285Z,10.85
2018-10-09T01:35:30.426Z,10.87
2018-10-09T01:36:01.535Z,10.87
2018-10-09T01:36:33.765Z,10.88
2018-10-09T01:37:04.914Z,10.88
2018-10-09T01:37:36.057Z,10.89
2018-10-09T01:38:07.192Z,10.89
2018-10-09T01:38:38.365Z,10.89
2018-10-09T01:39:09.480Z,10.87
2018-10-09T01:39:40.593Z,10.88
2018-10-09T01:40:11.741Z,10.87
2018-10-09T01:40:42.885Z,10.88
2018-10-09T01:41:14.028Z,10.85
2018-10-09T01:41:45.178Z,10.84
2018-10-09T01:42:16.341Z,10.82
2018-10-09T01:42:47.548Z,10.83
2018-10-09T01:43:18.699Z,10.83
2018-10-09T01:43:49.866Z,10.83
2018-10-09T01:44:20.995Z,10.86
2018-10-09T01:44:52.142Z,10.85
2018-10-09T01:45:23.273Z,10.83
2018-10-09T01:45:54.486Z,10.82
2018-10-09T01:46:25.627Z,10.84
2018-10-09T01:46:56.734Z,10.86
2018-10-09T01:47:27.867Z,10.86
2018-10-09T01:47:58.987Z,10.87
2018-10-09T01:48:30.193Z,10.87
2018-10-09T01:49:01.332Z,10.88
2018-10-09T01:49:32.447Z,10.86
2018-10-09T01:50:03.568Z,10.85
2018-10-09T01:50:34.682Z,10.84
2018-10-09T01:51:05.800Z,10.84
2018-10-09T01:51:37.016Z,10.83
2018-10-09T01:52:08.118Z,10.82
2018-10-09T01:52:39.252Z,10.81
2018-10-09T01:53:10.463Z,10.79
2018-10-09T01:53:41.587Z,10.77
2018-10-09T01:54:12.716Z,10.77
2018-10-09T01:54:43.842Z,10.80
2018-10-09T01:55:14.951Z,10.79
2018-10-09T01:55:46.072Z,10.82
2018-10-09T01:56:17.195Z,10.83
2018-10-09T01:56:48.345Z,10.84
2018-10-09T01:57:19.446Z,10.84
2018-10-09T01:57:50.637Z,10.80
2018-10-09T01:58:21.756Z,10.76
2018-10-09T01:58:52.906Z,10.77
2018-10-09T01:59:24.041Z,10.77
2018-10-09T01:59:55.194Z,10.75
2018-10-09T02:00:26.347Z,10.75
2018-10-09T02:00:57.465Z,10.71
2018-10-09T02:01:28.594Z,10.69
2018-10-09T02:01:59.749Z,10.71
2018-10-09T02:02:30.925Z,10.68
2018-10-09T02:03:02.061Z,10.67
2018-10-09T02:03:33.249Z,10.65
2018-10-09T02:04:04.354Z,10.64
2018-10-09T02:04:35.458Z,10.61
2018-10-09T02:05:06.567Z,10.58
2018-10-09T02:05:37.788Z,10.56
2018-10-09T02:06:08.935Z,10.54
2018-10-09T02:06:40.042Z,10.51
2018-10-09T02:07:11.155Z,10.51
2018-10-09T02:07:42.279Z,10.49
2018-10-09T02:08:13.404Z,10.48
2018-10-09T02:08:44.542Z,10.46
2018-10-09T02:09:15.651Z,10.46
2018-10-09T02:09:46.762Z,10.45
2018-10-09T02:10:17.906Z,10.41
2018-10-09T02:10:49.036Z,10.38
2018-10-09T02:11:20.164Z,10.37
2018-10-09T02:11:51.268Z,10.34
2018-10-09T02:12:22.428Z,10.35
2018-10-09T02:12:53.544Z,10.33
2018-10-09T02:13:24.694Z,10.30
2018-10-09T02:13:55.830Z,10.27
2018-10-09T02:14:28.187Z,10.26
2018-10-09T02:14:59.306Z,10.22
2018-10-09T02:15:30.489Z,10.20
2018-10-09T02:16:01.701Z,10.20
2018-10-09T02:16:32.860Z,10.18
2018-10-09T02:17:04.039Z,10.16
2018-10-09T02:17:35.167Z,10.15
2018-10-09T02:18:06.296Z,10.14
2018-10-09T02:18:37.428Z,10.15
2018-10-09T02:19:08.562Z,10.16
2018-10-09T02:19:39.757Z,10.16
2018-10-09T02:20:10.875Z,10.16
2018-10-09T02:20:42.000Z,10.15
2018-10-09T02:21:13.122Z,10.15
2018-10-09T02:21:45.287Z,10.14
2018-10-09T02:22:16.454Z,10.14
2018-10-09T02:22:47.575Z,10.13
2018-10-09T02:23:18.743Z,10.14
2018-10-09T02:23:49.890Z,10.14
2018-10-09T02:24:21.012Z,10.15
2018-10-09T02:24:52.176Z,10.12
2018-10-09T02:25:24.089Z,10.13
2018-10-09T02:25:55.275Z,10.09
2018-10-09T02:26:26.417Z,10.08
2018-10-09T02:26:57.525Z,10.07
2018-10-09T02:27:28.643Z,10.05
2018-10-09T02:27:59.774Z,10.04
2018-10-09T02:28:30.983Z,10.03
2018-10-09T02:29:02.140Z,10.02
2018-10-09T02:29:33.366Z,10.03
2018-10-09T02:30:04.548Z,10.02
2018-10-09T02:30:35.698Z,10.01
2018-10-09T02:31:06.923Z,10.02
2018-10-09T02:31:38.053Z,9.99
2018-10-09T02:32:09.172Z,9.98
2018-10-09T02:32:40.318Z,9.98
2018-10-09T02:33:11.480Z,9.97
2018-10-09T02:33:42.730Z,9.95
2018-10-09T02:34:13.886Z,9.97
2018-10-09T02:34:45.020Z,9.95
2018-10-09T02:35:16.155Z,9.95
2018-10-09T02:35:47.269Z,9.95
2018-10-09T02:36:18.534Z,9.96
2018-10-09T02:36:49.650Z,9.94
2018-10-09T02:37:20.804Z,9.94
2018-10-09T02:37:51.943Z,9.96
2018-10-09T02:38:23.104Z,9.96
2018-10-09T02:38:54.270Z,9.94
2018-10-09T02:39:25.395Z,9.94
2018-10-09T02:39:56.520Z,9.94
2018-10-09T02:40:27.629Z,9.95
2018-10-09T02:40:58.783Z,9.94
2018-10-09T02:41:31.030Z,9.96
2018-10-09T02:42:02.200Z,9.94
2018-10-09T02:42:33.913Z,9.93
2018-10-09T02:43:05.053Z,9.92
2018-10-09T02:43:36.234Z,9.93
2018-10-09T02:44:07.383Z,9.92
2018-10-09T02:44:38.512Z,9.92
2018-10-09T02:45:09.658Z,9.93
2018-10-09T02:45:40.786Z,9.94
2018-10-09T02:46:11.933Z,9.94
2018-10-09T02:46:43.070Z,9.94
2018-10-09T02:47:14.255Z,9.96
2018-10-09T02:47:45.434Z,9.97
2018-10-09T02:48:16.583Z,9.99
2018-10-09T02:48:47.692Z,9.96
2018-10-09T02:49:18.795Z,9.95
2018-10-09T02:49:49.894Z,9.96
2018-10-09T02:50:21.033Z,9.94
2018-10-09T02:50:52.165Z,9.94
2018-10-09T02:51:23.485Z,9.94
2018-10-09T02:51:54.587Z,9.93
2018-10-09T02:52:25.732Z,9.92
2018-10-09T02:52:56.853Z,9.92
2018-10-09T02:53:27.988Z,9.93
2018-10-09T02:53:59.373Z,9.92
2018-10-09T02:54:30.495Z,9.91
2018-10-09T02:55:01.648Z,9.91
2018-10-09T02:55:32.790Z,9.92
2018-10-09T02:56:03.955Z,9.92
2018-10-09T02:56:35.153Z,9.93
2018-10-09T02:57:06.303Z,9.92
2018-10-09T02:57:37.417Z,9.92
2018-10-09T02:58:09.158Z,9.89
2018-10-09T02:58:41.203Z,9.88
2018-10-09T02:59:12.319Z,9.86
2018-10-09T02:59:47.186Z,9.85
2018-10-09T03:00:18.928Z,9.86
2018-10-09T03:00:50.034Z,9.86
2018-10-09T03:01:21.894Z,9.85
2018-10-09T03:01:53.038Z,9.86
2018-10-09T03:02:24.215Z,9.86
2018-10-09T03:02:55.368Z,9.88
2018-10-09T03:03:28.353Z,9.87
2018-10-09T03:03:59.542Z,9.86
2018-10-09T03:04:30.804Z,9.85
2018-10-09T03:05:01.964Z,9.82
2018-10-09T03:05:33.130Z,9.81
2018-10-09T03:06:04.322Z,9.82
2018-10-09T03:06:36.449Z,9.81
2018-10-09T03:07:07.597Z,9.78
2018-10-09T03:07:38.774Z,9.75
2018-10-09T03:08:09.923Z,9.75
2018-10-09T03:08:41.110Z,9.73
2018-10-09T03:09:12.276Z,9.72
2018-10-09T03:09:44.003Z,9.71
2018-10-09T03:10:15.170Z,9.70
2018-10-09T03:10:46.294Z,9.69
2018-10-09T03:11:17.850Z,9.66
2018-10-09T03:11:49.089Z,9.67
2018-10-09T03:12:20.288Z,9.64
2018-10-09T03:12:51.490Z,9.68
2018-10-09T03:13:22.762Z,9.70
2018-10-09T03:13:54.033Z,9.66
2018-10-09T03:14:25.214Z,9.70
2018-10-09T03:14:56.469Z,9.76
2018-10-09T03:15:27.776Z,9.78
2018-10-09T03:15:58.913Z,9.79
2018-10-09T03:16:30.072Z,9.78
2018-10-09T03:17:01.185Z,9.77
2018-10-09T03:17:32.326Z,9.71
2018-10-09T03:18:03.459Z,9.73
2018-10-09T03:18:34.580Z,9.72
2018-10-09T03:19:05.687Z,9.71
2018-10-09T03:19:36.816Z,9.70
2018-10-09T03:20:07.966Z,9.71
2018-10-09T03:20:39.092Z,9.75
2018-10-09T03:21:10.206Z,9.74
2018-10-09T03:21:41.350Z,9.73
2018-10-09T03:22:12.543Z,9.72
2018-10-09T03:22:43.669Z,9.72
2018-10-09T03:23:14.787Z,9.72
2018-10-09T03:23:45.903Z,9.69
2018-10-09T03:24:17.067Z,9.67
2018-10-09T03:24:48.243Z,9.64
2018-10-09T03:25:19.384Z,9.63
2018-10-09T03:25:50.494Z,9.63
2018-10-09T03:26:21.638Z,9.62
2018-10-09T03:26:52.761Z,9.60
2018-10-09T03:27:23.877Z,9.61
2018-10-09T03:27:55.047Z,9.60
2018-10-09T03:28:26.163Z,9.60
2018-10-09T03:28:57.277Z,9.60
2018-10-09T03:29:28.761Z,9.58
2018-10-09T03:29:59.901Z,9.58
2018-10-09T03:30:31.018Z,9.57
2018-10-09T03:31:02.204Z,9.56
2018-10-09T03:31:33.315Z,9.55
2018-10-09T03:32:04.430Z,9.55
2018-10-09T03:32:35.584Z,9.55
2018-10-09T03:33:06.750Z,9.54
2018-10-09T03:33:37.854Z,9.53
2018-10-09T03:34:08.996Z,9.52
2018-10-09T03:34:40.139Z,9.52
2018-10-09T03:35:11.296Z,9.51
2018-10-09T03:35:42.426Z,9.53
2018-10-09T03:36:13.532Z,9.48
2018-10-09T03:36:44.686Z,9.47
2018-10-09T03:37:15.820Z,9.49
2018-10-09T03:37:46.945Z,9.47
2018-10-09T03:38:18.065Z,9.45
2018-10-09T03:38:49.161Z,9.44
2018-10-09T03:39:20.294Z,9.45
2018-10-09T03:39:52.317Z,9.44
2018-10-09T03:40:23.447Z,9.44
2018-10-09T03:40:54.664Z,9.44
2018-10-09T03:41:25.801Z,9.46
2018-10-09T03:41:56.902Z,9.45
2018-10-09T03:42:28.036Z,9.45
2018-10-09T03:42:59.162Z,9.43
2018-10-09T03:43:30.336Z,9.43
2018-10-09T03:44:01.447Z,9.41
2018-10-09T03:44:32.575Z,9.41
2018-10-09T03:45:03.746Z,9.41
2018-10-09T03:45:34.873Z,9.39
2018-10-09T03:46:06.025Z,9.35
2018-10-09T03:46:37.153Z,9.36
2018-10-09T03:47:08.273Z,9.35
2018-10-09T03:47:39.404Z,9.34
2018-10-09T03:48:10.546Z,9.31
2018-10-09T03:48:41.737Z,9.30
2018-10-09T03:49:12.866Z,9.32
2018-10-09T03:49:44.009Z,9.30
2018-10-09T03:50:15.162Z,9.29
2018-10-09T03:50:46.306Z,9.28
2018-10-09T03:51:17.497Z,9.29
2018-10-09T03:51:48.633Z,9.28
2018-10-09T03:52:19.804Z,9.26
2018-10-09T03:52:50.927Z,9.27
2018-10-09T03:53:22.047Z,9.28
2018-10-09T03:53:53.158Z,9.29
2018-10-09T03:54:24.284Z,9.28
2018-10-09T03:54:55.449Z,9.28
2018-10-09T03:55:26.562Z,9.28
2018-10-09T03:55:57.671Z,9.29
2018-10-09T03:56:28.811Z,9.32
2018-10-09T03:56:59.938Z,9.32
2018-10-09T03:57:31.084Z,9.34
2018-10-09T03:58:02.232Z,9.33
2018-10-09T03:58:33.352Z,9.37
2018-10-09T03:59:04.527Z,9.40
2018-10-09T03:59:36.574Z,9.42
2018-10-09T04:00:07.743Z,9.42
2018-10-09T04:00:38.864Z,9.45
2018-10-09T04:01:10.022Z,9.43
2018-10-09T04:01:41.193Z,9.44
2018-10-09T04:02:12.330Z,9.44
2018-10-09T04:02:43.452Z,9.43
2018-10-09T04:03:14.592Z,9.45
2018-10-09T04:03:45.763Z,9.44
2018-10-09T04:04:16.951Z,9.43
2018-10-09T04:04:48.076Z,9.42
2018-10-09T04:05:19.250Z,9.42
2018-10-09T04:05:50.382Z,9.42
2018-10-09T04:06:21.491Z,9.42
2018-10-09T04:06:52.642Z,9.39
2018-10-09T04:07:23.778Z,9.39
2018-10-09T04:07:54.889Z,9.38
2018-10-09T04:08:26.024Z,9.38
2018-10-09T04:08:57.151Z,9.38
2018-10-09T04:09:28.350Z,9.38
2018-10-09T04:09:59.438Z,9.39
2018-10-09T04:10:30.554Z,9.38
2018-10-09T04:11:01.750Z,9.41
2018-10-09T04:11:32.898Z,9.41
2018-10-09T04:12:04.022Z,9.38
2018-10-09T04:12:35.148Z,9.39
2018-10-09T04:13:06.278Z,9.39
2018-10-09T04:13:37.435Z,9.40
2018-10-09T04:14:08.599Z,9.40
2018-10-09T04:14:39.754Z,9.40
2018-10-09T04:15:10.865Z,9.40
2018-10-09T04:15:41.996Z,9.40
2018-10-09T04:16:13.128Z,9.40
2018-10-09T04:16:44.238Z,9.38
2018-10-09T04:17:15.362Z,9.38
2018-10-09T04:17:46.497Z,9.39
2018-10-09T04:18:17.606Z,9.39
2018-10-09T04:18:48.755Z,9.37
2018-10-09T04:19:19.949Z,9.37
2018-10-09T04:19:51.173Z,9.31
2018-10-09T04:20:22.309Z,9.26
2018-10-09T04:20:53.422Z,9.21
2018-10-09T04:21:25.259Z,9.17
2018-10-09T04:21:56.441Z,9.18
2018-10-09T04:22:27.548Z,9.17
2018-10-09T04:22:58.666Z,9.14
2018-10-09T04:23:30.092Z,9.16
2018-10-09T04:24:01.247Z,9.13
2018-10-09T04:24:32.356Z,9.13
2018-10-09T04:25:03.490Z,9.14
2018-10-09T04:25:34.589Z,9.16
2018-10-09T04:26:05.697Z,9.18
2018-10-09T04:26:36.828Z,9.17
2018-10-09T04:27:07.966Z,9.17
2018-10-09T04:27:39.138Z,9.18
2018-10-09T04:28:10.311Z,9.20
2018-10-09T04:28:41.462Z,9.21
2018-10-09T04:29:12.610Z,9.23
2018-10-09T04:29:43.720Z,9.26
2018-10-09T04:30:14.904Z,9.27
2018-10-09T04:30:46.030Z,9.28
2018-10-09T04:31:17.187Z,9.30
2018-10-09T04:31:48.309Z,9.32
2018-10-09T04:32:20.463Z,9.34
2018-10-09T04:32:51.589Z,9.35
2018-10-09T04:33:22.725Z,9.36
2018-10-09T04:33:53.845Z,9.36
2018-10-09T04:34:24.975Z,9.37
2018-10-09T04:34:56.095Z,9.41
2018-10-09T04:35:27.294Z,9.41
2018-10-09T04:35:58.410Z,9.42
2018-10-09T04:36:29.523Z,9.44
2018-10-09T04:37:00.675Z,9.48
2018-10-09T04:37:31.925Z,9.51
2018-10-09T04:38:03.117Z,9.54
2018-10-09T04:38:34.231Z,9.61
2018-10-09T04:39:05.336Z,9.67
2018-10-09T04:39:36.494Z,9.73
2018-10-09T04:40:07.626Z,9.80
2018-10-09T04:40:38.795Z,9.85
2018-10-09T04:41:09.926Z,9.91
2018-10-09T04:41:41.063Z,9.97
2018-10-09T04:42:12.174Z,10.02
2018-10-09T04:42:43.584Z,10.08
2018-10-09T04:43:14.730Z,10.15
2018-10-09T04:43:45.840Z,10.23
2018-10-09T04:44:16.973Z,10.32
2018-10-09T04:44:48.156Z,10.39
2018-10-09T04:45:19.310Z,10.44
2018-10-09T04:45:50.496Z,10.51
2018-10-09T04:46:21.618Z,10.59
2018-10-09T04:46:52.762Z,10.68
2018-10-09T04:47:23.905Z,10.76
2018-10-09T04:47:55.064Z,10.85
2018-10-09T04:48:26.262Z,10.91
2018-10-09T04:48:57.362Z,10.97
2018-10-09T04:49:28.505Z,11.06
2018-10-09T04:49:59.650Z,11.13
2018-10-09T04:50:30.772Z,11.21
2018-10-09T04:51:02.166Z,11.28
2018-10-09T04:51:33.274Z,11.37
2018-10-09T04:52:04.372Z,11.46
2018-10-09T04:52:35.486Z,11.56
2018-10-09T04:53:06.653Z,11.67
2018-10-09T04:53:37.944Z,11.72
2018-10-09T04:54:09.064Z,11.76
2018-10-09T04:54:40.176Z,11.79
2018-10-09T04:55:11.290Z,11.84
2018-10-09T04:55:42.395Z,11.87
2018-10-09T04:56:13.573Z,11.91
2018-10-09T04:56:44.755Z,11.98
2018-10-09T04:57:15.868Z,12.04
2018-10-09T04:57:46.990Z,12.10
2018-10-09T04:58:18.098Z,12.14
2018-10-09T04:58:49.236Z,12.21
2018-10-09T04:59:20.378Z,12.25
2018-10-09T04:59:51.496Z,12.25
2018-10-09T05:00:23.129Z,12.26
2018-10-09T05:00:54.231Z,12.24
2018-10-09T05:01:25.395Z,12.23
2018-10-09T05:01:56.573Z,12.23
2018-10-09T05:02:27.722Z,12.22
2018-10-09T05:02:58.854Z,12.24
2018-10-09T05:03:30.015Z,12.28
2018-10-09T05:04:01.217Z,12.33
2018-10-09T05:04:32.358Z,12.37
2018-10-09T05:05:03.469Z,12.39
2018-10-09T05:05:34.623Z,12.40
2018-10-09T05:06:05.745Z,12.40
2018-10-09T05:06:36.882Z,12.37
2018-10-09T05:07:08.742Z,12.37
2018-10-09T05:07:39.860Z,12.37
2018-10-09T05:08:11.036Z,12.35
2018-10-09T05:08:42.190Z,12.33
2018-10-09T05:09:13.958Z,12.33
2018-10-09T05:09:45.673Z,12.31
2018-10-09T05:10:16.892Z,12.30
2018-10-09T05:10:48.046Z,12.30
2018-10-09T05:11:20.893Z,12.29
2018-10-09T05:11:52.559Z,12.29
2018-10-09T05:12:24.419Z,12.29
2018-10-09T05:12:55.940Z,12.28
2018-10-09T05:13:28.122Z,12.27
2018-10-09T05:13:59.282Z,12.26
2018-10-09T05:14:31.012Z,12.23
2018-10-09T05:15:03.866Z,12.21
2018-10-09T05:15:35.522Z,12.20
2018-10-09T05:16:07.523Z,12.22
2018-10-09T05:16:38.683Z,12.21
2018-10-09T05:17:09.888Z,12.24
2018-10-09T05:17:41.082Z,12.28
2018-10-09T05:18:13.996Z,12.31
2018-10-09T05:18:45.428Z,12.35
2018-10-09T05:19:16.985Z,12.37
2018-10-09T05:19:48.190Z,12.36
2018-10-09T05:20:19.309Z,12.38
2018-10-09T05:20:51.695Z,12.38
2018-10-09T05:21:23.591Z,12.38
2018-10-09T05:21:55.309Z,12.37
2018-10-09T05:22:26.679Z,12.39
2018-10-09T05:22:58.584Z,12.39
2018-10-09T05:23:29.764Z,12.39
2018-10-09T05:24:01.783Z,12.37
2018-10-09T05:24:32.965Z,12.35
2018-10-09T05:25:04.107Z,12.33
2018-10-09T05:25:38.946Z,12.32
2018-10-09T05:26:10.073Z,12.29
2018-10-09T05:26:41.235Z,12.26
2018-10-09T05:27:14.590Z,12.27
2018-10-09T05:27:45.768Z,12.27
2018-10-09T05:28:16.922Z,12.24
2018-10-09T05:28:52.166Z,12.25
2018-10-09T05:29:23.423Z,12.24
2018-10-09T05:29:54.555Z,12.25
2018-10-09T05:30:25.675Z,12.23
2018-10-09T05:30:57.397Z,12.24
2018-10-09T05:31:29.767Z,12.24
2018-10-09T05:32:00.921Z,12.22
2018-10-09T05:32:32.064Z,12.22
2018-10-09T05:33:03.189Z,12.24
2018-10-09T05:33:34.346Z,12.26
2018-10-09T05:34:05.553Z,12.29
2018-10-09T05:34:37.635Z,12.33
2018-10-09T05:35:08.802Z,12.36
2018-10-09T05:35:40.685Z,12.39
2018-10-09T05:36:11.834Z,12.44
2018-10-09T05:36:43.021Z,12.45
2018-10-09T05:37:14.143Z,12.49
2018-10-09T05:37:45.276Z,12.50
2018-10-09T05:38:16.412Z,12.48
2018-10-09T05:38:47.540Z,12.51
2018-10-09T05:39:19.458Z,12.53
2018-10-09T05:39:50.577Z,12.50
2018-10-09T05:40:21.747Z,12.57
2018-10-09T05:40:52.910Z,12.63
2018-10-09T05:41:25.695Z,12.70
2018-10-09T05:41:56.822Z,12.75
2018-10-09T05:42:27.961Z,12.78
2018-10-09T05:42:59.358Z,12.79
2018-10-09T05:43:30.482Z,12.78
2018-10-09T05:44:01.669Z,12.74
2018-10-09T05:44:33.417Z,12.71
2018-10-09T05:45:06.252Z,12.73
2018-10-09T05:45:37.710Z,12.77
2018-10-09T05:46:08.822Z,12.77
2018-10-09T05:46:39.961Z,12.73
2018-10-09T05:47:11.746Z,12.68
2018-10-09T05:47:42.965Z,12.63
2018-10-09T05:48:16.325Z,12.64
2018-10-09T05:48:50.094Z,12.65
2018-10-09T05:49:22.655Z,12.66
2018-10-09T05:49:53.848Z,12.69
2018-10-09T05:50:25.067Z,12.74
2018-10-09T05:50:56.191Z,12.82
2018-10-09T05:51:28.219Z,12.85
2018-10-09T05:51:59.994Z,12.89
2018-10-09T05:52:31.172Z,12.94
2018-10-09T05:53:02.829Z,13.01
2018-10-09T05:53:33.983Z,13.14
2018-10-09T05:54:05.707Z,13.19
2018-10-09T05:54:41.707Z,13.27
2018-10-09T05:55:12.898Z,13.36
2018-10-09T05:55:44.766Z,13.44
2018-10-09T05:56:16.758Z,13.46
2018-10-09T05:56:47.915Z,13.53
2018-10-09T05:57:19.084Z,13.65
2018-10-09T05:57:50.229Z,13.73
2018-10-09T05:58:21.353Z,13.84
2018-10-09T05:58:52.484Z,13.99
2018-10-09T05:59:23.602Z,14.03
2018-10-09T05:59:54.764Z,14.07
2018-10-09T06:00:25.924Z,13.91
2018-10-09T06:00:57.027Z,13.94
2018-10-09T06:01:28.199Z,13.93
2018-10-09T06:01:59.358Z,13.87
2018-10-09T06:02:30.472Z,13.85
2018-10-09T06:03:01.605Z,13.83
2018-10-09T06:03:32.753Z,13.88
2018-10-09T06:04:03.881Z,13.96
2018-10-09T06:04:34.995Z,13.95
2018-10-09T06:05:06.135Z,14.04
2018-10-09T06:05:37.260Z,13.98
2018-10-09T06:06:08.645Z,13.91
2018-10-09T06:06:39.784Z,13.89
2018-10-09T06:07:10.889Z,13.91
2018-10-09T06:07:43.170Z,14.01
2018-10-09T06:08:15.001Z,14.09
2018-10-09T06:08:46.188Z,14.09
2018-10-09T06:09:17.334Z,14.21
2018-10-09T06:09:48.462Z,14.35
2018-10-09T06:10:19.594Z,14.44
2018-10-09T06:10:50.722Z,14.51
2018-10-09T06:11:21.899Z,14.51
2018-10-09T06:11:53.078Z,14.70
2018-10-09T06:12:24.200Z,14.82
2018-10-09T06:12:55.351Z,14.87
2018-10-09T06:13:26.520Z,14.96
2018-10-09T06:13:57.766Z,15.06
2018-10-09T06:14:28.953Z,15.08
2018-10-09T06:15:00.083Z,15.11
2018-10-09T06:15:31.316Z,15.10
2018-10-09T06:16:02.461Z,15.08
2018-10-09T06:16:33.574Z,15.09
2018-10-09T06:17:04.770Z,15.15
2018-10-09T06:17:35.909Z,15.15
2018-10-09T06:18:07.051Z,15.19
2018-10-09T06:18:38.171Z,15.16
2018-10-09T06:19:09.290Z,15.15
2018-10-09T06:19:40.393Z,15.11
2018-10-09T06:20:11.560Z,15.17
2018-10-09T06:20:42.690Z,15.08
2018-10-09T06:21:13.811Z,15.09
2018-10-09T06:21:44.930Z,15.11
2018-10-09T06:22:16.309Z,15.15
2018-10-09T06:22:48.239Z,15.13
2018-10-09T06:23:19.384Z,15.15
2018-10-09T06:23:50.539Z,15.17
2018-10-09T06:24:21.657Z,15.19
2018-10-09T06:24:53.764Z,15.16
2018-10-09T06:25:24.985Z,15.17
2018-10-09T06:25:56.118Z,15.14
2018-10-09T06:26:27.239Z,15.21
2018-10-09T06:26:58.367Z,15.32
2018-10-09T06:27:29.484Z,15.37
2018-10-09T06:28:00.689Z,15.34
2018-10-09T06:28:31.826Z,15.36
2018-10-09T06:29:02.941Z,15.35
2018-10-09T06:29:35.390Z,15.32
2018-10-09T06:30:06.784Z,15.34
2018-10-09T06:30:38.867Z,15.41
2018-10-09T06:31:09.980Z,15.45
2018-10-09T06:31:43.253Z,15.45
2018-10-09T06:32:14.441Z,15.45
2018-10-09T06:32:45.580Z,15.44
2018-10-09T06:33:16.720Z,15.48
2018-10-09T06:33:47.881Z,15.46
2018-10-09T06:34:18.997Z,15.39
2018-10-09T06:34:50.122Z,15.25
2018-10-09T06:35:21.228Z,15.19
2018-10-09T06:35:52.388Z,15.18
2018-10-09T06:36:23.534Z,15.25
2018-10-09T06:36:54.672Z,15.35
2018-10-09T06:37:25.890Z,15.35
2018-10-09T06:37:57.016Z,15.43
2018-10-09T06:38:28.702Z,15.41
2018-10-09T06:38:59.876Z,15.37
2018-10-09T06:39:31.021Z,15.29
2018-10-09T06:40:02.134Z,15.36
2018-10-09T06:40:33.411Z,15.41
2018-10-09T06:41:04.489Z,15.37
2018-10-09T06:41:35.679Z,15.36
2018-10-09T06:42:06.835Z,15.41
2018-10-09T06:42:37.995Z,15.50
2018-10-09T06:43:09.096Z,15.60
2018-10-09T06:43:40.232Z,15.68
2018-10-09T06:44:11.358Z,15.71
2018-10-09T06:44:42.489Z,15.73
2018-10-09T06:45:13.611Z,15.62
2018-10-09T06:45:44.734Z,15.66
2018-10-09T06:46:16.567Z,15.71
2018-10-09T06:46:47.715Z,15.59
2018-10-09T06:47:18.830Z,15.64
2018-10-09T06:47:50.277Z,15.62
2018-10-09T06:48:21.313Z,15.63
2018-10-09T06:48:52.446Z,15.64
2018-10-09T06:49:23.566Z,15.67
2018-10-09T06:49:54.684Z,15.71
2018-10-09T06:50:25.832Z,15.75
2018-10-09T06:50:56.979Z,15.71
2018-10-09T06:51:28.359Z,15.70
2018-10-09T06:52:00.001Z,15.78
2018-10-09T06:52:31.159Z,15.79